createdAt,value
2024-02-18T00:01:04.033Z,5.57
2024-02-18T00:03:57.245Z,6.90
2024-02-18T00:06:30.406Z,6.63
2024-02-18T00:09:03.943Z,4.65
2024-02-18T00:11:36.702Z,4.07
2024-02-18T00:14:10.100Z,6.68
2024-02-18T00:16:42.985Z,2.78
2024-02-18T00:19:16.216Z,3.42
2024-02-18T00:21:49.199Z,5.28
2024-02-18T00:24:22.717Z,6.93
2024-02-18T00:26:58.820Z,2.55
2024-02-18T00:29:32.850Z,7.18
2024-02-18T00:32:05.850Z,6.38
2024-02-18T00:34:39.577Z,4.57
2024-02-18T00:37:12.560Z,8.85
2024-02-18T00:39:46.009Z,9.23
2024-02-18T00:42:19.052Z,2.92
2024-02-18T00:44:52.138Z,5.55
2024-02-18T00:47:24.948Z,10.60
2024-02-18T00:49:58.229Z,3.33
2024-02-18T00:52:31.082Z,9.60
2024-02-18T00:55:04.358Z,3.83
2024-02-18T00:57:37.097Z,5.40
2024-02-18T01:00:11.883Z,4.07
2024-02-18T01:02:45.089Z,9.43
2024-02-18T01:05:18.396Z,5.03
2024-02-18T01:07:52.921Z,10.25
2024-02-18T01:10:26.007Z,4.60
2024-02-18T01:12:59.099Z,3.25
2024-02-18T01:15:32.665Z,8.63
2024-02-18T01:18:05.755Z,7.82
2024-02-18T01:20:39.165Z,8.98
2024-02-18T01:23:13.050Z,8.32
2024-02-18T01:25:46.130Z,6.60
2024-02-18T01:28:18.887Z,9.98
2024-02-18T01:30:52.181Z,6.60
2024-02-18T01:33:25.282Z,10.50
2024-02-18T01:35:58.427Z,4.95
2024-02-18T01:38:33.099Z,13.40
2024-02-18T01:41:06.661Z,7.35
2024-02-18T01:43:39.465Z,11.82
2024-02-18T01:46:12.764Z,4.75
2024-02-18T01:48:45.862Z,3.40
2024-02-18T01:51:19.414Z,10.13
2024-02-18T01:53:52.868Z,5.50
2024-02-18T01:56:26.087Z,8.13
2024-02-18T01:58:58.789Z,3.83
2024-02-18T02:01:32.258Z,1.88
2024-02-18T02:04:05.444Z,3.22
2024-02-18T02:06:39.082Z,4.05
2024-02-18T02:09:12.540Z,4.43
2024-02-18T02:11:45.803Z,3.00
2024-02-18T02:14:18.509Z,2.92
2024-02-18T02:16:51.912Z,3.20
2024-02-18T02:19:25.228Z,2.28
2024-02-18T02:21:58.395Z,4.43
2024-02-18T02:24:31.372Z,2.38
2024-02-18T02:27:05.920Z,5.65
2024-02-18T02:29:38.654Z,2.83
2024-02-18T02:32:11.697Z,5.47
2024-02-18T02:34:44.606Z,6.38
2024-02-18T02:37:18.134Z,4.45
2024-02-18T02:39:52.232Z,3.50
2024-02-18T02:42:25.611Z,5.63
2024-02-18T02:44:58.411Z,7.03
2024-02-18T02:47:31.776Z,2.78
2024-02-18T02:50:04.840Z,2.55
2024-02-18T02:52:42.054Z,5.70
2024-02-18T02:55:14.835Z,4.68
2024-02-18T02:57:49.911Z,4.05
2024-02-18T03:00:23.023Z,4.63
2024-02-18T03:02:57.259Z,2.38
2024-02-18T03:05:30.105Z,5.65
2024-02-18T03:08:03.117Z,3.00
2024-02-18T03:10:38.690Z,6.63
2024-02-18T03:13:11.747Z,3.92
2024-02-18T03:15:44.710Z,5.00
2024-02-18T03:18:18.309Z,4.00
2024-02-18T03:20:51.095Z,2.35
2024-02-18T03:23:24.335Z,3.17
2024-02-18T03:25:57.045Z,6.00
2024-02-18T03:28:30.150Z,7.10
2024-02-18T03:31:02.830Z,6.20
2024-02-18T03:33:35.932Z,5.35
2024-02-18T03:36:08.739Z,8.10
2024-02-18T03:38:42.127Z,2.55
2024-02-18T03:41:14.861Z,3.75
2024-02-18T03:43:48.135Z,5.38
2024-02-18T03:46:20.818Z,2.53
2024-02-18T03:48:54.015Z,6.28
2024-02-18T03:51:26.825Z,3.80
2024-02-18T03:54:00.338Z,2.53
2024-02-18T03:56:39.141Z,3.78
2024-02-18T03:59:14.983Z,3.97
2024-02-18T04:01:47.831Z,3.58
2024-02-18T04:04:22.636Z,3.83
2024-02-18T04:06:55.464Z,6.38
2024-02-18T04:09:28.595Z,6.72
2024-02-18T04:12:01.384Z,3.33
2024-02-18T04:14:34.501Z,3.38
2024-02-18T04:17:07.423Z,4.00
2024-02-18T04:19:40.939Z,5.10
2024-02-18T04:22:13.830Z,3.30
2024-02-18T04:24:46.870Z,3.67
2024-02-18T04:27:19.703Z,8.18
2024-02-18T04:29:52.689Z,3.80
2024-02-18T04:32:25.336Z,5.18
2024-02-18T04:34:58.508Z,5.45
2024-02-18T04:37:31.261Z,1.85
2024-02-18T04:40:08.274Z,3.15
2024-02-18T04:42:41.104Z,4.55
2024-02-18T04:45:14.297Z,5.90
2024-02-18T04:47:47.046Z,5.28
2024-02-18T04:50:20.354Z,4.70
2024-02-18T04:52:53.799Z,3.97
2024-02-18T04:55:26.816Z,2.90
2024-02-18T04:58:00.383Z,1.65
2024-02-18T05:00:33.486Z,7.55
2024-02-18T05:03:06.228Z,2.92
2024-02-18T05:05:39.622Z,2.78
2024-02-18T05:08:12.382Z,5.88
2024-02-18T05:10:45.477Z,4.20
2024-02-18T05:13:18.185Z,1.95
2024-02-18T05:15:53.183Z,3.10
2024-02-18T05:18:26.465Z,3.03
2024-02-18T05:20:59.662Z,7.53
2024-02-18T05:23:33.692Z,4.72
2024-02-18T05:26:06.883Z,6.95
2024-02-18T05:28:39.552Z,6.20
2024-02-18T05:31:22.756Z,3.03
2024-02-18T05:33:56.237Z,5.70
2024-02-18T05:36:29.415Z,3.08
2024-02-18T05:39:02.319Z,5.03
2024-02-18T05:41:35.478Z,4.40
2024-02-18T05:44:08.167Z,3.70
2024-02-18T05:46:41.278Z,4.30
2024-02-18T05:49:14.053Z,3.08
2024-02-18T05:51:51.816Z,4.68
2024-02-18T05:54:25.355Z,2.65
2024-02-18T05:56:58.444Z,9.85
2024-02-18T05:59:31.341Z,3.70
2024-02-18T06:02:04.412Z,2.53
2024-02-18T06:04:37.210Z,6.25
2024-02-18T06:07:10.401Z,4.10
2024-02-18T06:09:43.639Z,2.50
2024-02-18T06:12:16.776Z,1.92
2024-02-18T06:14:49.848Z,2.88
2024-02-18T06:17:22.910Z,2.55
2024-02-18T06:19:56.527Z,4.35
2024-02-18T06:22:29.642Z,2.50
2024-02-18T06:25:02.722Z,6.45
2024-02-18T06:27:38.627Z,2.63
2024-02-18T06:30:12.374Z,4.35
2024-02-18T06:32:45.346Z,5.53
2024-02-18T06:35:18.480Z,3.75
2024-02-18T06:37:51.618Z,7.75
2024-02-18T06:40:25.481Z,5.72
2024-02-18T06:42:58.868Z,4.07
2024-02-18T06:45:31.882Z,11.55
2024-02-18T06:48:06.542Z,4.70
2024-02-18T06:50:39.260Z,5.10
2024-02-18T06:53:14.646Z,5.72
2024-02-18T06:55:47.244Z,2.90
2024-02-18T06:58:21.271Z,10.32
2024-02-18T07:00:54.454Z,5.15
2024-02-18T07:03:27.618Z,4.32
2024-02-18T07:06:00.423Z,5.88
2024-02-18T07:08:33.725Z,3.55
2024-02-18T07:11:08.557Z,4.97
2024-02-18T07:13:41.677Z,5.78
2024-02-18T07:16:14.825Z,4.45
2024-02-18T07:18:48.308Z,2.47
2024-02-18T07:21:21.078Z,7.45
2024-02-18T07:23:55.248Z,3.03
2024-02-18T07:26:27.982Z,10.50
2024-02-18T07:29:01.596Z,14.68
2024-02-18T07:31:38.644Z,7.97
2024-02-18T07:34:12.063Z,5.65
2024-02-18T07:36:45.435Z,15.68
2024-02-18T07:39:18.475Z,10.68
2024-02-18T07:41:51.519Z,12.05
2024-02-18T07:44:24.722Z,5.68
2024-02-18T07:46:58.985Z,7.55
2024-02-18T07:49:34.374Z,3.03
2024-02-18T07:52:07.824Z,3.72
2024-02-18T07:54:45.531Z,10.88
2024-02-18T07:57:18.812Z,5.40
2024-02-18T07:59:52.564Z,9.52
2024-02-18T08:02:25.229Z,6.50
2024-02-18T08:04:58.399Z,8.65
2024-02-18T08:07:43.060Z,4.72
2024-02-18T08:10:16.588Z,3.83
2024-02-18T08:12:53.325Z,6.13
2024-02-18T08:15:27.150Z,4.63
2024-02-18T08:17:59.897Z,4.88
2024-02-18T08:20:33.036Z,6.15
2024-02-18T08:23:07.826Z,11.43
2024-02-18T08:25:40.966Z,3.88
2024-02-18T08:28:13.696Z,5.60
2024-02-18T08:30:47.258Z,3.05
2024-02-18T08:33:20.108Z,3.35
2024-02-18T08:35:53.225Z,4.38
2024-02-18T08:38:25.914Z,4.40
2024-02-18T08:40:58.983Z,5.82
2024-02-18T08:43:31.663Z,6.85
2024-02-18T08:46:04.940Z,6.97
2024-02-18T08:48:39.882Z,5.32
2024-02-18T08:51:14.222Z,7.90
2024-02-18T08:53:47.507Z,9.20
2024-02-18T08:56:21.427Z,5.68
2024-02-18T08:58:54.398Z,6.20
2024-02-18T09:01:34.311Z,8.10
2024-02-18T09:04:09.267Z,5.47
2024-02-18T09:06:42.604Z,5.38
2024-02-18T09:09:17.513Z,4.28
2024-02-18T09:11:51.910Z,3.28
2024-02-18T09:14:24.672Z,8.15
2024-02-18T09:16:57.701Z,4.32
2024-02-18T09:19:33.417Z,7.50
2024-02-18T09:22:08.144Z,6.43
2024-02-18T09:24:43.906Z,4.72
2024-02-18T09:27:18.144Z,7.25
2024-02-18T09:29:52.141Z,5.13
2024-02-18T09:32:25.327Z,6.57
2024-02-18T09:34:58.256Z,6.60
2024-02-18T09:37:31.256Z,5.60
2024-02-18T09:40:05.094Z,7.28
2024-02-18T09:42:41.967Z,7.13
2024-02-18T09:45:17.719Z,6.80
2024-02-18T09:47:52.210Z,4.68
2024-02-18T09:50:24.894Z,4.03
2024-02-18T09:52:57.942Z,5.82
2024-02-18T09:55:30.604Z,7.28
2024-02-18T09:58:04.248Z,4.57
2024-02-18T10:00:37.751Z,8.50
2024-02-18T10:03:10.888Z,5.03
2024-02-18T10:05:43.939Z,4.88
2024-02-18T10:08:17.063Z,7.43
2024-02-18T10:10:49.758Z,3.47
2024-02-18T10:13:24.580Z,7.70
2024-02-18T10:15:57.355Z,8.38
2024-02-18T10:18:30.478Z,6.72
2024-02-18T10:21:04.071Z,5.35
2024-02-18T10:23:37.220Z,5.10
2024-02-18T10:26:10.343Z,8.40
2024-02-18T10:28:44.493Z,6.30
2024-02-18T10:31:18.004Z,6.03
2024-02-18T10:33:51.621Z,6.18
2024-02-18T10:36:26.683Z,6.35
2024-02-18T10:39:03.844Z,5.50
2024-02-18T10:41:39.085Z,7.78
2024-02-18T10:44:18.856Z,5.82
2024-02-18T10:46:53.044Z,7.47
2024-02-18T10:49:34.412Z,4.90
2024-02-18T10:52:11.296Z,4.60
2024-02-18T10:54:52.520Z,7.22
2024-02-18T10:57:28.155Z,11.43
2024-02-18T11:00:04.838Z,3.95
2024-02-18T11:02:48.998Z,6.00
2024-02-18T11:05:22.634Z,9.68
2024-02-18T11:07:56.467Z,3.22
2024-02-18T11:10:30.281Z,7.57
2024-02-18T11:13:04.663Z,3.22
2024-02-18T11:15:38.447Z,6.13
2024-02-18T11:18:15.353Z,5.60
2024-02-18T11:20:48.850Z,4.72
2024-02-18T11:23:21.665Z,14.95
2024-02-18T11:25:55.452Z,9.43
2024-02-18T11:28:28.185Z,8.88
2024-02-18T11:31:01.299Z,4.55
2024-02-18T11:33:34.803Z,3.38
2024-02-18T11:36:11.477Z,6.32
2024-02-18T11:38:48.057Z,6.60
2024-02-18T11:41:25.224Z,6.00
2024-02-18T11:44:01.560Z,3.80
2024-02-18T11:46:39.593Z,10.63
2024-02-18T11:49:13.024Z,14.07
2024-02-18T11:51:46.848Z,4.63
2024-02-18T11:54:19.949Z,4.50
2024-02-18T11:56:54.042Z,4.97
2024-02-18T11:59:26.876Z,5.05
2024-02-18T12:01:59.862Z,6.45
2024-02-18T12:04:33.194Z,9.55
2024-02-18T12:07:07.989Z,6.88
2024-02-18T12:09:40.793Z,5.97
2024-02-18T12:12:13.926Z,8.30
2024-02-18T12:14:51.432Z,10.48
2024-02-18T12:17:24.849Z,5.22
2024-02-18T12:19:58.244Z,8.95
2024-02-18T12:22:31.343Z,6.15
2024-02-18T12:25:05.223Z,5.93
2024-02-18T12:27:39.190Z,4.07
2024-02-18T12:30:13.996Z,3.17
2024-02-18T12:32:48.032Z,7.15
2024-02-18T12:35:21.493Z,8.25
2024-02-18T12:37:54.666Z,7.25
2024-02-18T12:40:29.317Z,6.90
2024-02-18T12:45:44.195Z,4.85
2024-02-18T12:48:23.286Z,8.15
2024-02-18T12:51:12.873Z,10.60
2024-02-18T12:53:48.390Z,7.30
2024-02-18T12:56:21.128Z,5.47
2024-02-18T12:58:54.189Z,7.13
2024-02-18T13:01:27.052Z,8.15
2024-02-18T13:04:00.486Z,3.88
2024-02-18T13:06:34.973Z,7.28
2024-02-18T13:09:08.094Z,4.10
2024-02-18T13:11:40.846Z,6.28
2024-02-18T13:14:13.859Z,7.65
2024-02-18T13:16:47.525Z,4.97
2024-02-18T13:19:20.689Z,3.72
2024-02-18T13:21:53.506Z,6.20
2024-02-18T13:24:26.840Z,6.28
2024-02-18T13:26:59.506Z,3.17
2024-02-18T13:29:32.674Z,5.53
2024-02-18T13:32:06.041Z,10.88
2024-02-18T13:34:39.214Z,5.50
2024-02-18T13:37:12.044Z,7.88
2024-02-18T13:39:45.180Z,5.03
2024-02-18T13:42:20.800Z,16.40
2024-02-18T13:44:55.138Z,3.92
2024-02-18T13:47:27.920Z,4.35
2024-02-18T13:50:01.132Z,4.65
2024-02-18T13:52:34.062Z,7.03
2024-02-18T13:55:07.520Z,6.13
2024-02-18T13:57:40.294Z,6.35
2024-02-18T14:00:13.626Z,7.88
2024-02-18T14:02:46.388Z,8.57
2024-02-18T14:05:21.112Z,6.47
2024-02-18T14:07:54.006Z,8.80
2024-02-18T14:10:28.826Z,5.28
2024-02-18T14:13:02.110Z,6.63
2024-02-18T14:15:35.200Z,5.15
2024-02-18T14:18:08.173Z,7.40
2024-02-18T14:20:44.151Z,5.78
2024-02-18T14:23:17.030Z,7.45
2024-02-18T14:25:50.053Z,9.55
2024-02-18T14:28:23.072Z,10.13
2024-02-18T14:30:56.971Z,7.50
2024-02-18T14:33:29.849Z,6.90
2024-02-18T14:36:02.982Z,8.10
2024-02-18T14:38:35.612Z,8.60
2024-02-18T14:41:10.426Z,9.50
2024-02-18T14:43:43.108Z,11.20
2024-02-18T14:46:16.216Z,9.23
2024-02-18T14:48:49.213Z,16.75
2024-02-18T14:51:22.463Z,8.27
2024-02-18T14:53:55.219Z,9.07
2024-02-18T14:56:28.323Z,10.20
2024-02-18T14:59:01.721Z,7.82
2024-02-18T15:01:37.251Z,9.82
2024-02-18T15:04:12.519Z,7.50
2024-02-18T15:06:45.867Z,8.15
2024-02-18T15:09:21.150Z,10.52
2024-02-18T15:11:54.664Z,11.27
2024-02-18T15:14:28.092Z,6.88
2024-02-18T15:17:01.160Z,10.88
2024-02-18T15:19:36.251Z,9.20
2024-02-18T15:22:09.482Z,11.05
2024-02-18T15:24:42.261Z,8.27
2024-02-18T15:27:15.670Z,10.65
2024-02-18T15:29:48.269Z,7.32
2024-02-18T15:32:21.241Z,9.38
2024-02-18T15:34:54.157Z,8.85
2024-02-18T15:37:27.483Z,11.45
2024-02-18T15:40:00.287Z,7.93
2024-02-18T15:42:35.485Z,10.43
2024-02-18T15:45:09.150Z,9.30
2024-02-18T15:47:42.384Z,9.05
2024-02-18T15:50:15.575Z,8.63
2024-02-18T15:52:48.639Z,9.20
2024-02-18T15:55:22.921Z,10.30
2024-02-18T15:57:57.378Z,11.85
2024-02-18T16:00:30.163Z,11.88
2024-02-18T16:03:03.241Z,8.63
2024-02-18T16:05:36.210Z,8.82
2024-02-18T16:08:09.347Z,10.80
2024-02-18T16:10:42.037Z,10.35
2024-02-18T16:13:15.294Z,8.98
2024-02-18T16:15:50.610Z,7.25
2024-02-18T16:18:23.872Z,12.68
2024-02-18T16:20:56.616Z,14.88
2024-02-18T16:23:29.670Z,12.70
2024-02-18T16:26:04.125Z,18.92
2024-02-18T16:28:39.369Z,10.02
2024-02-18T16:31:13.462Z,14.90
2024-02-18T16:33:46.785Z,9.30
2024-02-18T16:36:19.622Z,10.68
2024-02-18T16:38:53.339Z,11.77
2024-02-18T16:41:26.116Z,12.43
2024-02-18T16:43:59.227Z,17.83
2024-02-18T16:46:31.889Z,16.92
2024-02-18T16:49:05.059Z,13.52
2024-02-18T16:51:45.606Z,24.50
2024-02-18T16:54:19.120Z,28.45
2024-02-18T16:56:52.329Z,19.05
2024-02-18T16:59:25.447Z,20.88
2024-02-18T17:01:58.209Z,28.33
2024-02-18T17:04:31.692Z,26.65
2024-02-18T17:07:04.610Z,21.73
2024-02-18T17:09:37.944Z,23.40
2024-02-18T17:12:11.540Z,22.98
2024-02-18T17:14:44.569Z,26.15
2024-02-18T17:17:17.256Z,22.88
2024-02-18T17:19:50.872Z,21.83
2024-02-18T17:22:23.895Z,19.08
2024-02-18T17:24:57.084Z,35.30
2024-02-18T17:27:29.966Z,19.33
2024-02-18T17:30:03.127Z,26.65
2024-02-18T17:32:36.064Z,21.98
2024-02-18T17:35:09.588Z,24.42
2024-02-18T17:37:42.471Z,21.27
2024-02-18T17:40:16.640Z,20.05
2024-02-18T17:42:51.436Z,26.25
2024-02-18T17:45:24.713Z,30.05
2024-02-18T17:47:57.419Z,30.45
2024-02-18T17:50:30.759Z,25.17
2024-02-18T17:53:03.506Z,27.67
2024-02-18T17:55:36.759Z,20.55
2024-02-18T17:58:09.698Z,22.63
2024-02-18T18:00:43.275Z,24.52
2024-02-18T18:03:16.170Z,15.57
2024-02-18T18:05:49.419Z,31.90
2024-02-18T18:08:22.308Z,28.38
2024-02-18T18:10:55.466Z,28.85
2024-02-18T18:13:28.601Z,20.35
2024-02-18T18:16:08.239Z,27.90
2024-02-18T18:18:41.154Z,18.67
2024-02-18T18:21:15.107Z,29.42
2024-02-18T18:23:53.454Z,30.30
2024-02-18T18:26:29.214Z,25.33
2024-02-18T18:29:01.921Z,27.48
2024-02-18T18:31:35.691Z,28.90
2024-02-18T18:34:08.559Z,26.25
2024-02-18T18:36:43.473Z,22.67
2024-02-18T18:39:16.275Z,28.80
2024-02-18T18:41:49.440Z,33.10
2024-02-18T18:44:22.168Z,37.22
2024-02-18T18:46:55.217Z,40.40
2024-02-18T18:49:28.213Z,39.05
2024-02-18T18:52:01.400Z,43.72
2024-02-18T18:54:35.903Z,32.25
2024-02-18T18:57:09.061Z,37.88
2024-02-18T18:59:41.885Z,38.17
2024-02-18T19:02:15.336Z,71.65
2024-02-18T19:04:48.377Z,80.10
2024-02-18T19:07:26.568Z,53.33
2024-02-18T19:09:59.657Z,45.40
2024-02-18T19:12:33.194Z,41.80
2024-02-18T19:15:07.915Z,42.70
2024-02-18T19:17:41.180Z,46.53
2024-02-18T19:20:13.937Z,44.38
2024-02-18T19:22:46.948Z,36.50
2024-02-18T19:25:19.683Z,43.47
2024-02-18T19:27:52.947Z,54.33
2024-02-18T19:30:25.764Z,55.88
2024-02-18T19:33:03.087Z,59.28
2024-02-18T19:35:36.050Z,52.13
2024-02-18T19:38:10.527Z,43.20
2024-02-18T19:40:43.309Z,36.33
2024-02-18T19:43:16.629Z,39.22
2024-02-18T19:45:49.338Z,46.15
2024-02-18T19:48:22.696Z,56.03
2024-02-18T19:50:55.659Z,38.33
2024-02-18T19:53:30.128Z,39.30
2024-02-18T19:56:04.959Z,31.02
2024-02-18T19:58:39.759Z,35.45
2024-02-18T20:01:13.793Z,38.67
2024-02-18T20:03:49.359Z,54.45
2024-02-18T20:06:22.300Z,38.28
2024-02-18T20:08:55.373Z,39.50
2024-02-18T20:11:30.938Z,46.13
2024-02-18T20:14:04.636Z,42.80
2024-02-18T20:16:37.356Z,42.67
2024-02-18T20:19:14.011Z,42.65
2024-02-18T20:21:48.729Z,40.53
2024-02-18T20:24:21.919Z,35.88
2024-02-18T20:26:54.501Z,37.83
2024-02-18T20:29:27.616Z,38.60
2024-02-18T20:32:00.452Z,36.45
2024-02-18T20:34:36.134Z,47.75
2024-02-18T20:37:08.962Z,46.33
2024-02-18T20:39:45.161Z,41.55
2024-02-18T20:42:18.236Z,42.05
2024-02-18T20:44:51.253Z,44.03
2024-02-18T20:47:24.075Z,48.10
2024-02-18T20:49:57.289Z,27.60
2024-02-18T20:52:30.238Z,41.30
2024-02-18T20:55:05.557Z,36.53
2024-02-18T20:57:39.888Z,39.40
2024-02-18T21:00:13.257Z,44.38
2024-02-18T21:02:45.987Z,36.03
2024-02-18T21:05:19.178Z,32.22
2024-02-18T21:07:52.134Z,36.58
2024-02-18T21:10:27.170Z,40.47
2024-02-18T21:13:00.017Z,43.17
2024-02-18T21:15:33.342Z,27.63
2024-02-18T21:18:08.772Z,48.55
2024-02-18T21:20:43.205Z,39.20
2024-02-18T21:23:16.030Z,35.40
2024-02-18T21:25:49.269Z,45.72
2024-02-18T21:28:23.091Z,44.05
2024-02-18T21:30:56.488Z,36.20
2024-02-18T21:33:29.367Z,33.80
2024-02-18T21:36:12.194Z,40.45
2024-02-18T21:38:45.900Z,33.50
2024-02-18T21:41:21.992Z,34.85
2024-02-18T21:43:54.733Z,40.20
2024-02-18T21:46:29.613Z,35.33
2024-02-18T21:49:02.398Z,43.95
2024-02-18T21:51:36.498Z,36.83
2024-02-18T21:54:10.036Z,41.45
2024-02-18T21:56:43.281Z,37.22
2024-02-18T21:59:16.007Z,39.05
2024-02-18T22:01:49.201Z,42.42
2024-02-18T22:04:22.046Z,38.38
2024-02-18T22:07:05.250Z,40.28
2024-02-18T22:09:47.034Z,33.50
2024-02-18T22:12:20.378Z,51.58
2024-02-18T22:14:53.092Z,36.80
2024-02-18T22:17:26.374Z,44.60
2024-02-18T22:19:59.114Z,46.25
2024-02-18T22:22:32.239Z,33.22
2024-02-18T22:25:05.572Z,42.15
2024-02-18T22:27:38.926Z,44.35
2024-02-18T22:30:17.712Z,42.17
2024-02-18T22:32:50.732Z,40.30
2024-02-18T22:35:23.420Z,33.67
2024-02-18T22:37:56.566Z,32.45
2024-02-18T22:40:29.220Z,36.10
2024-02-18T22:43:02.233Z,35.10
2024-02-18T22:45:35.174Z,39.50
2024-02-18T22:48:08.512Z,34.92
2024-02-18T22:50:41.146Z,38.50
2024-02-18T22:53:14.256Z,37.20
2024-02-18T22:55:47.895Z,35.85
2024-02-18T22:58:22.645Z,45.33
2024-02-18T23:00:55.342Z,42.13
2024-02-18T23:03:28.500Z,42.40
2024-02-18T23:06:01.417Z,34.88
2024-02-18T23:08:36.222Z,38.00
2024-02-18T23:11:09.521Z,39.53
2024-02-18T23:13:42.633Z,39.50
2024-02-18T23:16:16.273Z,36.85
2024-02-18T23:18:49.807Z,27.25
2024-02-18T23:21:22.500Z,29.42
2024-02-18T23:23:55.663Z,32.72
2024-02-18T23:26:28.389Z,39.97
2024-02-18T23:29:01.500Z,41.00
2024-02-18T23:31:39.171Z,33.30
2024-02-18T23:34:13.263Z,36.42
2024-02-18T23:36:46.177Z,47.60
2024-02-18T23:39:19.241Z,44.78
2024-02-18T23:41:51.875Z,36.22
2024-02-18T23:44:25.165Z,36.65
2024-02-18T23:46:58.412Z,25.48
2024-02-18T23:49:31.597Z,41.03
2024-02-18T23:52:04.457Z,31.48
2024-02-18T23:54:39.599Z,32.53
2024-02-18T23:57:12.776Z,41.90
2024-02-18T23:59:45.822Z,27.25
